createdAt,value
2023-03-29T00:01:02.578Z,1.60
2023-03-29T00:03:31.049Z,2.00
2023-03-29T00:06:03.305Z,1.30
2023-03-29T00:08:34.191Z,1.40
2023-03-29T00:11:02.668Z,1.70
2023-03-29T00:13:31.280Z,1.90
2023-03-29T00:15:59.566Z,1.80
2023-03-29T00:18:27.801Z,1.70
2023-03-29T00:21:01.559Z,2.00
2023-03-29T00:23:30.028Z,2.00
2023-03-29T00:25:58.233Z,2.20
2023-03-29T00:28:26.571Z,1.80
2023-03-29T00:31:08.590Z,2.90
2023-03-29T00:33:37.724Z,2.50
2023-03-29T00:36:08.928Z,2.20
2023-03-29T00:38:37.685Z,2.20
2023-03-29T00:41:08.028Z,2.20
2023-03-29T00:44:00.632Z,2.60
2023-03-29T00:46:30.702Z,1.80
2023-03-29T00:49:07.469Z,2.00
2023-03-29T00:51:38.548Z,2.30
2023-03-29T00:54:15.106Z,2.30
2023-03-29T00:56:49.900Z,2.60
2023-03-29T00:59:25.631Z,2.00
2023-03-29T01:01:59.968Z,1.90
2023-03-29T01:04:37.076Z,1.80
2023-03-29T01:07:35.512Z,1.70
2023-03-29T01:10:19.293Z,2.20
2023-03-29T01:12:53.082Z,2.00
2023-03-29T01:15:26.642Z,2.00
2023-03-29T01:17:58.508Z,2.00
2023-03-29T01:20:45.126Z,2.00
2023-03-29T01:23:33.297Z,2.30
2023-03-29T01:26:20.823Z,2.20
2023-03-29T01:29:09.986Z,2.40
2023-03-29T01:31:46.059Z,2.10
2023-03-29T01:34:47.455Z,1.90
2023-03-29T01:37:37.777Z,2.50
2023-03-29T01:40:06.668Z,2.20
2023-03-29T01:43:12.488Z,3.30
2023-03-29T01:45:50.478Z,3.50
2023-03-29T01:48:28.277Z,2.50
2023-03-29T01:51:10.605Z,2.70
2023-03-29T01:53:56.580Z,2.30
2023-03-29T01:56:28.814Z,2.30
2023-03-29T01:59:20.649Z,2.50
2023-03-29T02:01:54.694Z,2.90
2023-03-29T02:04:29.224Z,2.90
2023-03-29T02:07:00.779Z,2.30
2023-03-29T02:09:32.302Z,2.50
2023-03-29T02:12:02.305Z,2.80
2023-03-29T02:14:34.217Z,3.00
2023-03-29T02:17:31.895Z,3.50
2023-03-29T02:20:14.743Z,3.10
2023-03-29T02:22:50.788Z,3.00
2023-03-29T02:25:19.928Z,3.00
2023-03-29T02:27:51.925Z,3.60
2023-03-29T02:30:21.681Z,3.00
2023-03-29T02:33:11.153Z,1.90
2023-03-29T02:35:59.260Z,3.80
2023-03-29T02:38:29.958Z,3.70
2023-03-29T02:41:01.524Z,4.20
2023-03-29T02:43:31.324Z,3.30
2023-03-29T02:46:00.467Z,3.70
2023-03-29T02:48:32.319Z,3.50
2023-03-29T02:51:04.163Z,4.00
2023-03-29T02:53:41.505Z,3.70
2023-03-29T02:56:09.901Z,3.30
2023-03-29T02:58:38.808Z,3.60
2023-03-29T03:01:09.930Z,2.90
2023-03-29T03:03:39.097Z,2.90
2023-03-29T03:06:07.658Z,4.00
2023-03-29T03:08:36.384Z,3.50
2023-03-29T03:11:04.813Z,3.60
2023-03-29T03:13:33.221Z,3.90
2023-03-29T03:16:01.527Z,3.90
2023-03-29T03:18:29.911Z,3.70
2023-03-29T03:21:02.164Z,4.20
2023-03-29T03:23:30.958Z,4.10
2023-03-29T03:25:59.345Z,4.30
2023-03-29T03:28:27.714Z,4.30
2023-03-29T03:30:56.229Z,4.10
2023-03-29T03:33:25.120Z,4.80
2023-03-29T03:36:10.995Z,4.30
2023-03-29T03:38:39.505Z,4.50
2023-03-29T03:41:07.901Z,4.90
2023-03-29T03:43:36.471Z,4.60
2023-03-29T03:46:04.998Z,4.20
2023-03-29T03:48:33.461Z,3.90
2023-03-29T03:51:17.830Z,3.90
2023-03-29T03:53:46.311Z,3.60
2023-03-29T03:56:14.792Z,4.00
2023-03-29T03:59:02.712Z,4.70
2023-03-29T04:01:35.733Z,5.10
2023-03-29T04:04:09.446Z,4.60
2023-03-29T04:06:42.424Z,4.90
2023-03-29T04:09:33.680Z,4.10
2023-03-29T04:12:21.326Z,4.50
2023-03-29T04:14:50.027Z,4.50
2023-03-29T04:17:22.851Z,5.60
2023-03-29T04:20:07.163Z,5.00
2023-03-29T04:22:35.534Z,5.20
2023-03-29T04:25:06.517Z,5.80
2023-03-29T04:27:50.645Z,5.90
2023-03-29T04:30:42.285Z,6.60
2023-03-29T04:35:49.664Z,7.00
2023-03-29T04:38:24.489Z,5.60
2023-03-29T04:40:56.147Z,5.00
2023-03-29T04:43:46.862Z,5.60
2023-03-29T04:46:33.415Z,4.90
2023-03-29T04:49:08.782Z,4.20
2023-03-29T04:51:44.190Z,4.10
2023-03-29T04:54:12.624Z,4.80
2023-03-29T04:57:00.269Z,4.10
2023-03-29T04:59:51.536Z,5.70
2023-03-29T05:02:38.904Z,4.90
2023-03-29T05:05:07.698Z,5.30
2023-03-29T05:07:37.541Z,4.60
2023-03-29T05:10:07.004Z,3.90
2023-03-29T05:12:35.437Z,4.90
2023-03-29T05:15:05.648Z,5.30
2023-03-29T05:17:34.888Z,5.60
2023-03-29T05:20:13.081Z,4.40
2023-03-29T05:22:42.360Z,4.90
2023-03-29T05:25:13.559Z,6.00
2023-03-29T05:27:43.581Z,5.00
2023-03-29T05:30:15.466Z,5.20
2023-03-29T05:33:10.654Z,5.50
2023-03-29T05:35:40.192Z,5.30
2023-03-29T05:38:10.315Z,4.90
2023-03-29T05:40:38.759Z,5.00
2023-03-29T05:43:20.386Z,5.30
2023-03-29T05:45:48.795Z,4.90
2023-03-29T05:48:17.392Z,5.00
2023-03-29T05:50:50.182Z,4.70
2023-03-29T05:53:19.270Z,4.70
2023-03-29T05:55:51.492Z,4.70
2023-03-29T05:58:21.865Z,4.90
2023-03-29T06:00:50.610Z,4.70
2023-03-29T06:03:30.798Z,4.20
2023-03-29T06:06:05.061Z,5.10
2023-03-29T06:08:35.336Z,4.70
2023-03-29T06:11:16.839Z,5.20
2023-03-29T06:14:04.096Z,5.00
2023-03-29T06:16:33.434Z,4.80
2023-03-29T06:19:02.724Z,4.40
2023-03-29T06:21:31.940Z,4.90
2023-03-29T06:24:00.654Z,4.20
2023-03-29T06:26:31.706Z,4.60
2023-03-29T06:29:00.987Z,4.50
2023-03-29T06:31:30.331Z,4.20
2023-03-29T06:33:59.524Z,4.60
2023-03-29T06:36:46.065Z,4.90
2023-03-29T06:39:15.868Z,4.60
2023-03-29T06:42:20.200Z,4.30
2023-03-29T06:45:17.068Z,4.50
2023-03-29T06:47:49.347Z,4.10
2023-03-29T06:50:18.344Z,4.30
2023-03-29T06:52:59.547Z,4.00
2023-03-29T06:55:29.308Z,4.70
2023-03-29T06:57:59.112Z,4.80
2023-03-29T07:00:30.087Z,5.00
2023-03-29T07:03:08.358Z,5.40
2023-03-29T07:05:42.259Z,4.70
2023-03-29T07:08:16.643Z,4.50
2023-03-29T07:11:15.452Z,4.60
2023-03-29T07:13:49.321Z,4.80
2023-03-29T07:16:20.438Z,4.30
2023-03-29T07:19:12.113Z,4.80
2023-03-29T07:21:54.875Z,5.50
2023-03-29T07:24:27.652Z,5.50
2023-03-29T07:27:03.743Z,4.60
2023-03-29T07:29:34.445Z,4.90
2023-03-29T07:32:04.814Z,5.80
2023-03-29T07:34:39.207Z,5.10
2023-03-29T07:37:09.607Z,5.60
2023-03-29T07:39:40.645Z,4.20
2023-03-29T07:42:29.348Z,4.10
2023-03-29T07:44:58.851Z,4.70
2023-03-29T07:47:31.592Z,6.80
2023-03-29T07:50:02.400Z,4.80
2023-03-29T07:52:31.888Z,4.20
2023-03-29T07:55:01.066Z,5.00
2023-03-29T07:57:44.598Z,4.90
2023-03-29T08:00:17.678Z,5.20
2023-03-29T08:02:52.727Z,4.50
2023-03-29T08:05:37.761Z,4.20
2023-03-29T08:08:14.334Z,5.10
2023-03-29T08:10:53.942Z,3.80
2023-03-29T08:13:42.284Z,3.00
2023-03-29T08:16:29.949Z,4.40
2023-03-29T08:19:10.704Z,4.60
2023-03-29T08:22:14.763Z,3.80
2023-03-29T08:25:04.639Z,4.10
2023-03-29T08:27:37.808Z,3.60
2023-03-29T08:30:09.943Z,4.30
2023-03-29T08:32:39.980Z,4.50
2023-03-29T08:35:09.831Z,5.30
2023-03-29T08:38:07.168Z,4.80
2023-03-29T08:40:37.027Z,4.80
2023-03-29T08:43:43.176Z,4.30
2023-03-29T08:46:44.448Z,4.40
2023-03-29T08:49:23.994Z,5.00
2023-03-29T08:52:01.400Z,4.10
2023-03-29T08:54:40.313Z,4.40
2023-03-29T08:57:43.904Z,3.20
2023-03-29T09:00:39.083Z,4.00
2023-03-29T09:03:19.787Z,4.50
2023-03-29T09:05:57.756Z,3.90
2023-03-29T09:08:29.696Z,2.80
2023-03-29T09:11:24.795Z,2.20
2023-03-29T09:14:09.149Z,1.80
2023-03-29T09:17:00.005Z,3.10
2023-03-29T09:19:31.450Z,3.40
2023-03-29T09:22:08.599Z,3.70
2023-03-29T09:24:47.378Z,2.30
2023-03-29T09:27:28.013Z,2.90
2023-03-29T09:30:26.373Z,2.90
2023-03-29T09:33:07.917Z,2.40
2023-03-29T09:36:07.292Z,3.20
2023-03-29T09:38:40.495Z,5.20
2023-03-29T09:41:28.174Z,3.00
2023-03-29T09:44:00.772Z,3.00
2023-03-29T09:46:40.333Z,3.20
2023-03-29T09:49:34.874Z,2.70
2023-03-29T09:52:10.194Z,4.60
2023-03-29T09:54:39.185Z,3.20
2023-03-29T09:57:27.653Z,4.70
2023-03-29T09:59:58.589Z,4.60
2023-03-29T10:02:30.998Z,4.30
2023-03-29T10:05:04.715Z,2.90
2023-03-29T10:07:56.101Z,3.90
2023-03-29T10:10:36.003Z,5.50
2023-03-29T10:13:07.415Z,3.00
2023-03-29T10:15:35.665Z,3.70
2023-03-29T10:18:13.127Z,6.20
2023-03-29T10:20:41.579Z,4.90
2023-03-29T10:23:19.302Z,5.00
2023-03-29T10:25:47.763Z,2.80
2023-03-29T10:28:19.032Z,2.80
2023-03-29T10:30:54.300Z,1.90
2023-03-29T10:33:24.749Z,2.10
2023-03-29T10:35:57.786Z,2.30
2023-03-29T10:38:29.595Z,2.00
2023-03-29T10:41:12.256Z,1.40
2023-03-29T10:43:46.871Z,2.30
2023-03-29T10:46:29.537Z,1.90
2023-03-29T10:49:05.448Z,2.40
2023-03-29T10:51:45.630Z,2.90
2023-03-29T10:54:20.177Z,3.20
2023-03-29T10:57:05.844Z,2.50
2023-03-29T10:59:38.979Z,3.20
2023-03-29T11:02:13.684Z,4.30
2023-03-29T11:05:17.470Z,3.70
2023-03-29T11:08:05.492Z,4.00
2023-03-29T11:10:57.987Z,3.80
2023-03-29T11:13:39.207Z,2.90
2023-03-29T11:16:48.878Z,3.20
2023-03-29T11:19:42.485Z,3.20
2023-03-29T11:22:22.033Z,3.00
2023-03-29T11:25:19.089Z,2.50
2023-03-29T11:28:05.215Z,2.40
2023-03-29T11:30:52.065Z,2.80
2023-03-29T11:34:02.539Z,2.90
2023-03-29T11:36:45.967Z,2.80
2023-03-29T11:39:37.396Z,2.80
2023-03-29T11:42:20.552Z,3.20
2023-03-29T11:44:56.734Z,2.70
2023-03-29T11:50:01.132Z,3.60
2023-03-29T11:52:34.075Z,4.10
2023-03-29T11:55:28.708Z,3.80
2023-03-29T11:58:20.262Z,3.50
2023-03-29T12:00:55.957Z,3.10
2023-03-29T12:03:39.195Z,3.20
2023-03-29T12:06:16.771Z,3.60
2023-03-29T12:09:05.589Z,3.70
2023-03-29T12:11:48.263Z,3.30
2023-03-29T12:14:35.747Z,3.20
2023-03-29T12:17:09.698Z,2.90
2023-03-29T12:19:58.951Z,3.00
2023-03-29T12:22:29.065Z,3.50
2023-03-29T12:25:03.487Z,2.90
2023-03-29T12:27:44.948Z,2.90
2023-03-29T12:30:19.664Z,3.10
2023-03-29T12:33:01.681Z,3.30
2023-03-29T12:35:56.657Z,3.80
2023-03-29T12:38:54.417Z,3.10
2023-03-29T12:41:45.255Z,3.00
2023-03-29T12:44:50.670Z,3.20
2023-03-29T12:47:34.264Z,3.40
2023-03-29T12:50:06.454Z,2.80
2023-03-29T12:52:38.195Z,2.30
2023-03-29T12:55:44.621Z,2.60
2023-03-29T12:58:50.476Z,2.70
2023-03-29T13:01:31.304Z,3.80
2023-03-29T13:03:59.840Z,4.40
2023-03-29T13:06:33.253Z,4.50
2023-03-29T13:09:23.836Z,3.10
2023-03-29T13:11:54.278Z,3.60
2023-03-29T13:14:30.277Z,4.20
2023-03-29T13:17:18.319Z,3.50
2023-03-29T13:20:11.505Z,4.60
2023-03-29T13:23:02.018Z,2.30
2023-03-29T13:25:45.751Z,3.40
2023-03-29T13:28:28.137Z,3.30
2023-03-29T13:31:15.621Z,3.40
2023-03-29T13:34:07.246Z,3.10
2023-03-29T13:36:44.936Z,3.50
2023-03-29T13:39:22.280Z,3.90
2023-03-29T13:41:54.552Z,3.90
2023-03-29T13:44:23.033Z,2.90
2023-03-29T13:47:04.733Z,3.30
2023-03-29T13:49:35.841Z,3.50
2023-03-29T13:52:24.702Z,3.70
2023-03-29T13:54:58.174Z,3.70
2023-03-29T13:57:55.441Z,3.20
2023-03-29T14:00:32.903Z,4.50
2023-03-29T14:03:07.370Z,3.90
2023-03-29T14:05:40.061Z,3.40
2023-03-29T14:08:27.737Z,3.40
2023-03-29T14:10:57.159Z,4.50
2023-03-29T14:13:30.455Z,3.80
2023-03-29T14:16:07.591Z,3.70
2023-03-29T14:18:45.274Z,2.50
2023-03-29T14:21:14.987Z,3.20
2023-03-29T14:23:46.356Z,2.90
2023-03-29T14:26:20.725Z,3.90
2023-03-29T14:28:56.981Z,3.70
2023-03-29T14:31:38.061Z,4.30
2023-03-29T14:34:16.012Z,3.30
2023-03-29T14:36:49.190Z,3.80
2023-03-29T14:39:22.022Z,3.50
2023-03-29T14:41:54.749Z,3.60
2023-03-29T14:44:35.017Z,3.60
2023-03-29T14:47:04.277Z,2.90
2023-03-29T14:49:33.043Z,3.50
2023-03-29T14:52:01.954Z,3.90
2023-03-29T14:54:33.573Z,3.40
2023-03-29T14:57:07.618Z,4.40
2023-03-29T14:59:38.771Z,4.30
2023-03-29T15:02:33.247Z,3.70
2023-03-29T15:05:04.948Z,3.80
2023-03-29T15:07:37.086Z,3.00
2023-03-29T15:10:06.739Z,3.20
2023-03-29T15:12:38.290Z,2.90
2023-03-29T15:15:12.249Z,3.60
2023-03-29T15:17:50.182Z,4.40
2023-03-29T15:20:27.715Z,4.80
2023-03-29T15:25:46.341Z,3.10
2023-03-29T15:29:08.354Z,3.40
2023-03-29T15:31:39.826Z,3.40
2023-03-29T15:34:27.548Z,3.10
2023-03-29T15:36:59.476Z,2.80
2023-03-29T15:39:29.684Z,3.00
2023-03-29T15:41:58.513Z,3.30
2023-03-29T15:44:32.468Z,3.50
2023-03-29T15:47:01.022Z,3.00
2023-03-29T15:49:29.420Z,4.70
2023-03-29T15:51:58.220Z,3.60
2023-03-29T15:54:28.184Z,4.30
2023-03-29T15:57:18.035Z,4.00
2023-03-29T15:59:46.530Z,4.10
2023-03-29T16:02:17.706Z,4.40
2023-03-29T16:04:46.234Z,5.00
2023-03-29T16:07:17.298Z,5.10
2023-03-29T16:09:46.372Z,4.00
2023-03-29T16:12:16.493Z,4.20
2023-03-29T16:14:44.934Z,4.30
2023-03-29T16:17:14.350Z,4.20
2023-03-29T16:19:42.788Z,4.30
2023-03-29T16:22:11.068Z,4.70
2023-03-29T16:24:39.706Z,4.40
2023-03-29T16:27:08.033Z,5.10
2023-03-29T16:29:36.451Z,3.40
2023-03-29T16:32:06.707Z,3.30
2023-03-29T16:34:38.355Z,4.10
2023-03-29T16:37:07.820Z,2.90
2023-03-29T16:39:36.130Z,3.00
2023-03-29T16:42:04.498Z,3.90
2023-03-29T16:44:33.361Z,4.60
2023-03-29T16:47:02.103Z,4.60
2023-03-29T16:49:39.256Z,4.20
2023-03-29T16:52:09.058Z,4.10
2023-03-29T16:54:37.481Z,4.20
2023-03-29T16:57:07.402Z,4.20
2023-03-29T16:59:38.902Z,4.00
2023-03-29T17:02:09.704Z,5.20
2023-03-29T17:04:41.187Z,4.20
2023-03-29T17:07:12.630Z,4.20
2023-03-29T17:09:41.909Z,3.60
2023-03-29T17:12:10.607Z,4.70
2023-03-29T17:14:39.316Z,3.60
2023-03-29T17:17:12.083Z,4.40
2023-03-29T17:19:40.566Z,4.10
2023-03-29T17:22:08.945Z,4.10
2023-03-29T17:24:37.273Z,4.50
2023-03-29T17:27:05.521Z,5.20
2023-03-29T17:29:34.069Z,3.80
2023-03-29T17:32:04.976Z,4.00
2023-03-29T17:34:34.822Z,3.80
2023-03-29T17:37:03.840Z,4.30
2023-03-29T17:39:37.733Z,3.60
2023-03-29T17:42:06.797Z,3.50
2023-03-29T17:44:41.457Z,4.20
2023-03-29T17:47:09.829Z,3.70
2023-03-29T17:49:38.525Z,4.00
2023-03-29T17:52:07.015Z,4.70
2023-03-29T17:54:35.880Z,3.90
2023-03-29T17:57:07.536Z,3.70
2023-03-29T17:59:38.330Z,4.00
2023-03-29T18:02:07.300Z,4.30
2023-03-29T18:04:35.729Z,3.90
2023-03-29T18:07:05.344Z,4.10
2023-03-29T18:09:34.646Z,5.50
2023-03-29T18:12:03.292Z,4.60
2023-03-29T18:14:31.692Z,4.80
2023-03-29T18:17:03.576Z,5.30
2023-03-29T18:19:32.119Z,5.40
2023-03-29T18:22:01.322Z,5.50
2023-03-29T18:24:30.844Z,5.50
2023-03-29T18:27:00.048Z,5.50
2023-03-29T18:29:29.605Z,6.30
2023-03-29T18:32:02.902Z,6.10
2023-03-29T18:34:31.861Z,7.20
2023-03-29T18:37:00.736Z,6.70
2023-03-29T18:39:29.099Z,6.60
2023-03-29T18:41:57.770Z,6.90
2023-03-29T18:44:27.481Z,7.00
2023-03-29T18:46:56.501Z,7.10
2023-03-29T18:49:25.997Z,7.10
2023-03-29T18:51:55.973Z,6.70
2023-03-29T18:54:24.475Z,6.20
2023-03-29T18:56:52.968Z,5.10
2023-03-29T18:59:21.494Z,5.90
2023-03-29T19:01:50.645Z,6.10
2023-03-29T19:04:20.129Z,7.10
2023-03-29T19:06:49.460Z,7.60
2023-03-29T19:09:18.107Z,11.40
2023-03-29T19:11:50.039Z,10.20
2023-03-29T19:14:25.766Z,10.10
2023-03-29T19:16:56.295Z,10.00
2023-03-29T19:19:26.539Z,9.60
2023-03-29T19:21:57.701Z,6.90
2023-03-29T19:24:28.432Z,5.90
2023-03-29T19:26:57.639Z,6.20
2023-03-29T19:29:26.440Z,6.20
2023-03-29T19:31:56.598Z,7.60
2023-03-29T19:34:24.919Z,7.80
2023-03-29T19:36:56.271Z,9.00
2023-03-29T19:39:26.846Z,9.30
2023-03-29T19:41:58.242Z,8.90
2023-03-29T19:44:28.299Z,8.50
2023-03-29T19:46:56.936Z,8.60
2023-03-29T19:49:25.455Z,7.60
2023-03-29T19:51:55.795Z,8.20
2023-03-29T19:54:26.436Z,6.10
2023-03-29T19:56:57.524Z,6.50
2023-03-29T19:59:27.253Z,7.30
2023-03-29T20:01:57.050Z,6.50
2023-03-29T20:04:25.976Z,7.70
2023-03-29T20:06:54.424Z,7.60
2023-03-29T20:09:22.590Z,7.50
2023-03-29T20:11:51.008Z,7.30
2023-03-29T20:14:19.311Z,5.60
2023-03-29T20:16:52.515Z,7.20
2023-03-29T20:19:25.464Z,6.80
2023-03-29T20:21:58.210Z,4.90
2023-03-29T20:24:26.595Z,5.20
2023-03-29T20:26:55.326Z,5.40
2023-03-29T20:29:23.502Z,5.70
2023-03-29T20:31:51.923Z,6.10
2023-03-29T20:34:20.482Z,5.10
2023-03-29T20:36:49.195Z,6.30
2023-03-29T20:39:24.382Z,6.80
2023-03-29T20:41:54.903Z,7.30
2023-03-29T20:44:26.376Z,7.20
2023-03-29T20:47:08.705Z,6.90
2023-03-29T20:49:37.776Z,7.10
2023-03-29T20:52:10.894Z,7.00
2023-03-29T20:54:39.117Z,8.80
2023-03-29T20:57:08.209Z,7.60
2023-03-29T20:59:38.332Z,7.90
2023-03-29T21:02:06.824Z,8.60
2023-03-29T21:04:37.012Z,7.80
2023-03-29T21:07:08.390Z,9.10
2023-03-29T21:09:36.864Z,9.30
2023-03-29T21:12:05.162Z,9.60
2023-03-29T21:14:33.427Z,10.30
2023-03-29T21:17:01.749Z,10.00
2023-03-29T21:19:30.002Z,11.10
2023-03-29T21:21:58.253Z,11.80
2023-03-29T21:24:26.525Z,11.60
2023-03-29T21:26:55.208Z,12.20
2023-03-29T21:29:23.516Z,11.10
2023-03-29T21:31:51.785Z,11.00
2023-03-29T21:34:20.037Z,13.00
2023-03-29T21:36:48.350Z,13.20
2023-03-29T21:39:18.109Z,12.70
2023-03-29T21:41:46.496Z,12.80
2023-03-29T21:44:15.297Z,12.30
2023-03-29T21:46:43.578Z,12.30
2023-03-29T21:49:12.168Z,12.50
2023-03-29T21:51:40.500Z,13.00
2023-03-29T21:54:11.158Z,10.60
2023-03-29T21:56:39.569Z,9.30
2023-03-29T21:59:07.865Z,9.40
2023-03-29T22:01:36.419Z,9.00
2023-03-29T22:04:04.822Z,8.20
2023-03-29T22:06:33.091Z,7.40
2023-03-29T22:09:03.349Z,7.70
2023-03-29T22:11:31.770Z,6.60
2023-03-29T22:13:59.996Z,6.70
2023-03-29T22:16:28.496Z,7.00
2023-03-29T22:18:58.072Z,8.10
2023-03-29T22:21:28.576Z,8.50
2023-03-29T22:23:58.731Z,9.20
2023-03-29T22:26:30.621Z,7.90
2023-03-29T22:29:00.903Z,5.90
2023-03-29T22:31:31.711Z,6.40
2023-03-29T22:34:03.055Z,7.10
2023-03-29T22:36:31.972Z,5.60
2023-03-29T22:39:00.208Z,5.70
2023-03-29T22:41:29.101Z,6.30
2023-03-29T22:43:59.244Z,6.90
2023-03-29T22:46:28.999Z,7.20
2023-03-29T22:48:57.518Z,6.10
2023-03-29T22:51:26.417Z,6.40
2023-03-29T22:53:54.702Z,11.60
2023-03-29T22:56:23.885Z,7.10
2023-03-29T22:58:52.139Z,7.70
2023-03-29T23:01:20.471Z,5.40
2023-03-29T23:03:48.769Z,6.20
2023-03-29T23:06:17.037Z,7.70
2023-03-29T23:08:45.518Z,7.80
2023-03-29T23:11:13.794Z,7.30
2023-03-29T23:13:42.108Z,6.80
2023-03-29T23:16:10.511Z,7.70
2023-03-29T23:18:39.097Z,7.10
2023-03-29T23:21:09.209Z,6.50
2023-03-29T23:23:37.691Z,6.80
2023-03-29T23:26:12.007Z,6.40
2023-03-29T23:28:41.255Z,6.40
2023-03-29T23:31:11.854Z,6.20
2023-03-29T23:33:42.864Z,6.20
2023-03-29T23:36:14.670Z,6.00
2023-03-29T23:38:44.799Z,5.30
2023-03-29T23:41:13.782Z,5.80
2023-03-29T23:43:44.228Z,5.70
2023-03-29T23:46:16.090Z,6.10
2023-03-29T23:48:46.210Z,5.60
2023-03-29T23:51:14.699Z,6.10
2023-03-29T23:53:42.884Z,6.20
2023-03-29T23:56:13.438Z,7.10
2023-03-29T23:58:42.034Z,7.90
